Time;durP1;ratioP1;P1;durP2;ratioP2;P2;SDS_P1;SDS_P2;PMS_P1;PMS_P2;Temp;Humidity;BMP_temperature;BMP_pressure;BME280_temperature;BME280_humidity;BME280_pressure;Samples;Min_cycle;Max_cycle;Signal;HPM_P1;HPM_P2
2023/04/30 00:01:21;;;;;;;1.50;1.20;;;9.20;98.20;;;;;;4999741;28;21058;-80
2023/04/30 00:03:48;;;;;;;1.50;1.20;;;9.20;98.20;;;;;;5004759;28;20463;-80
2023/04/30 00:06:16;;;;;;;1.50;1.17;;;9.20;98.20;;;;;;4994792;28;20856;-80
2023/04/30 00:08:42;;;;;;;1.50;1.20;;;9.20;98.20;;;;;;5008648;28;20499;-79
2023/04/30 00:11:09;;;;;;;1.50;1.20;;;9.10;98.20;;;;;;4989635;28;20478;-80
2023/04/30 00:13:36;;;;;;;1.50;1.10;;;9.10;98.20;;;;;;4993983;28;20484;-79
2023/04/30 00:16:03;;;;;;;1.50;1.20;;;9.10;98.20;;;;;;4991826;28;20485;-80
2023/04/30 00:18:30;;;;;;;1.50;1.10;;;9.00;98.20;;;;;;5018232;28;20506;-79
2023/04/30 00:20:56;;;;;;;1.50;1.10;;;9.00;98.20;;;;;;4994264;28;20464;-79
2023/04/30 00:23:25;;;;;;;1.53;1.20;;;8.90;98.20;;;;;;5019167;28;20471;-79
2023/04/30 00:25:51;;;;;;;1.60;1.30;;;8.80;98.20;;;;;;4994977;28;20874;-79
2023/04/30 00:28:18;;;;;;;1.50;1.20;;;8.80;98.20;;;;;;5019409;28;21020;-79
2023/04/30 00:30:45;;;;;;;1.57;1.20;;;8.80;98.20;;;;;;5005016;28;20460;-79
2023/04/30 00:33:12;;;;;;;1.50;1.13;;;8.80;98.20;;;;;;5010622;28;20487;-79
2023/04/30 00:35:39;;;;;;;1.50;1.20;;;8.70;98.20;;;;;;5004491;28;20466;-81
2023/04/30 00:38:06;;;;;;;1.57;1.20;;;8.70;98.20;;;;;;5010039;28;20920;-80
2023/04/30 00:40:35;;;;;;;1.60;1.20;;;8.70;98.20;;;;;;5005314;28;20489;-79
2023/04/30 00:43:02;;;;;;;1.50;1.20;;;8.70;98.20;;;;;;4998228;28;20832;-80
2023/04/30 00:45:29;;;;;;;1.50;1.20;;;8.60;98.20;;;;;;4998776;28;20461;-79
2023/04/30 00:47:56;;;;;;;1.50;1.20;;;8.60;98.20;;;;;;5008835;28;21043;-79
2023/04/30 00:50:23;;;;;;;1.53;1.20;;;8.60;98.20;;;;;;5005842;28;20824;-79
2023/04/30 00:52:50;;;;;;;1.57;1.20;;;8.60;98.20;;;;;;5005500;28;20582;-79
2023/04/30 00:55:17;;;;;;;1.50;1.20;;;8.60;98.20;;;;;;5003806;28;20460;-79
2023/04/30 00:57:46;;;;;;;1.57;1.20;;;8.60;98.20;;;;;;5008614;28;20483;-79
2023/04/30 01:00:14;;;;;;;1.50;1.20;;;8.60;98.20;;;;;;5005344;28;20541;-79
2023/04/30 01:02:41;;;;;;;1.50;1.10;;;8.60;98.20;;;;;;5007951;28;20488;-79
2023/04/30 01:05:08;;;;;;;1.50;1.20;;;8.60;98.20;;;;;;5006212;28;20460;-79
2023/04/30 01:07:37;;;;;;;1.57;1.20;;;8.60;98.20;;;;;;5007436;28;20486;-79
2023/04/30 01:10:05;;;;;;;1.60;1.20;;;8.60;98.20;;;;;;4994988;28;20480;-79
2023/04/30 01:12:39;;;;;;;1.53;1.20;;;8.60;98.20;;;;;;4993462;28;20483;-79
2023/04/30 01:15:15;;;;;;;1.50;1.20;;;8.60;98.20;;;;;;4988937;28;20463;-79
2023/04/30 01:17:48;;;;;;;1.50;1.20;;;8.60;98.20;;;;;;5008073;28;20483;-79
2023/04/30 01:20:15;;;;;;;1.60;1.40;;;8.50;98.20;;;;;;5005809;28;21012;-79
2023/04/30 01:22:49;;;;;;;1.60;1.20;;;8.50;98.20;;;;;;5008881;28;20494;-79
2023/04/30 01:25:54;;;;;;;1.53;1.20;;;8.50;98.20;;;;;;5006183;28;20983;-79
2023/04/30 01:28:24;;;;;;;1.53;1.30;;;8.40;98.20;;;;;;4986384;28;20476;-79
2023/04/30 01:30:51;;;;;;;1.70;1.60;;;8.40;98.20;;;;;;4995509;28;20854;-79
2023/04/30 01:33:18;;;;;;;1.50;1.20;;;8.40;98.20;;;;;;5020101;28;20517;-79
2023/04/30 01:36:03;;;;;;;1.50;1.20;;;8.30;98.20;;;;;;5003349;28;20536;-79
2023/04/30 01:38:49;;;;;;;1.60;1.20;;;8.30;98.20;;;;;;4989654;28;20521;-79
2023/04/30 01:41:28;;;;;;;1.50;1.20;;;8.20;98.20;;;;;;4989529;28;20508;-78
2023/04/30 01:44:24;;;;;;;1.53;1.20;;;8.20;98.20;;;;;;4995850;28;21066;-79
2023/04/30 01:46:58;;;;;;;1.60;1.27;;;8.10;98.20;;;;;;4987614;28;20525;-79
2023/04/30 01:49:32;;;;;;;1.50;1.20;;;8.10;98.20;;;;;;4992092;28;20484;-78
2023/04/30 01:52:08;;;;;;;1.50;1.20;;;8.00;98.20;;;;;;4984769;28;20484;-78
2023/04/30 01:54:45;;;;;;;1.50;1.20;;;8.00;98.20;;;;;;4990671;28;20461;-79
2023/04/30 01:57:19;;;;;;;1.60;1.40;;;8.00;98.20;;;;;;4986996;28;20912;-78
2023/04/30 01:59:48;;;;;;;1.50;1.27;;;7.90;98.20;;;;;;4989102;28;20897;-78
2023/04/30 02:02:15;;;;;;;1.53;1.30;;;7.90;98.20;;;;;;4980589;28;20481;-79
2023/04/30 02:04:41;;;;;;;1.60;1.33;;;7.80;98.20;;;;;;4985892;28;20808;-78
2023/04/30 02:07:08;;;;;;;1.50;1.20;;;7.80;98.20;;;;;;4985669;28;20488;-78
2023/04/30 02:09:35;;;;;;;1.50;1.20;;;7.70;98.20;;;;;;4990160;28;20512;-79
2023/04/30 02:12:03;;;;;;;1.53;1.20;;;7.70;98.20;;;;;;4986648;28;20490;-78
2023/04/30 02:14:31;;;;;;;1.60;1.30;;;7.70;98.20;;;;;;4983328;28;20458;-78
2023/04/30 02:16:59;;;;;;;1.53;1.20;;;7.70;98.20;;;;;;4984999;28;20559;-78
2023/04/30 02:19:26;;;;;;;1.60;1.40;;;7.60;98.20;;;;;;4992575;28;20563;-78
2023/04/30 02:21:52;;;;;;;1.60;1.30;;;7.60;98.20;;;;;;4984243;28;20876;-78
2023/04/30 02:24:19;;;;;;;1.57;1.20;;;7.60;98.20;;;;;;4993331;28;20465;-78
2023/04/30 02:26:46;;;;;;;1.50;1.30;;;7.60;98.20;;;;;;4984041;28;20476;-78
2023/04/30 02:29:13;;;;;;;1.50;1.20;;;7.60;98.20;;;;;;4984621;28;20477;-78
2023/04/30 02:31:39;;;;;;;1.50;1.20;;;7.60;98.20;;;;;;4986182;28;21794;-78
2023/04/30 02:34:07;;;;;;;1.57;1.30;;;7.60;98.20;;;;;;4995369;28;20480;-78
2023/04/30 02:36:35;;;;;;;1.53;1.20;;;7.60;98.20;;;;;;4986409;28;20880;-78
2023/04/30 02:39:02;;;;;;;1.50;1.20;;;7.50;98.20;;;;;;4994898;28;20574;-78
2023/04/30 02:41:29;;;;;;;1.57;1.27;;;7.50;98.20;;;;;;4982851;28;20570;-78
2023/04/30 02:43:56;;;;;;;1.60;1.30;;;7.50;98.20;;;;;;4993121;28;20535;-78
2023/04/30 02:46:22;;;;;;;1.53;1.20;;;7.40;98.20;;;;;;4980712;28;20487;-77
2023/04/30 02:48:49;;;;;;;1.53;1.30;;;7.40;98.20;;;;;;4991375;28;20477;-78
2023/04/30 02:51:17;;;;;;;1.50;1.30;;;7.30;98.20;;;;;;4980000;28;20487;-78
2023/04/30 02:53:44;;;;;;;1.57;1.30;;;7.30;98.20;;;;;;4992547;28;20465;-78
2023/04/30 02:56:11;;;;;;;1.60;1.30;;;7.30;98.20;;;;;;4980307;28;20484;-78
2023/04/30 02:58:38;;;;;;;1.53;1.27;;;7.20;98.20;;;;;;4994719;28;20500;-78
2023/04/30 03:01:05;;;;;;;1.50;1.30;;;7.20;98.20;;;;;;4973950;28;20457;-78
2023/04/30 03:03:32;;;;;;;1.50;1.20;;;7.20;98.20;;;;;;4994211;28;20465;-78
2023/04/30 03:05:59;;;;;;;1.57;1.30;;;7.20;98.20;;;;;;4978108;28;20501;-77
2023/04/30 03:08:27;;;;;;;1.57;1.30;;;7.20;98.20;;;;;;4994548;28;20886;-78
2023/04/30 03:10:54;;;;;;;1.57;1.30;;;7.20;98.20;;;;;;4981152;28;20461;-78
2023/04/30 03:13:21;;;;;;;1.50;1.30;;;7.10;98.20;;;;;;4992776;28;20462;-78
2023/04/30 03:15:47;;;;;;;1.57;1.30;;;7.10;98.20;;;;;;4981390;28;20542;-78
2023/04/30 03:18:14;;;;;;;1.60;1.47;;;7.10;98.20;;;;;;4997879;28;20496;-78
2023/04/30 03:20:41;;;;;;;1.50;1.20;;;7.10;98.20;;;;;;4986152;28;20573;-78
2023/04/30 03:23:08;;;;;;;1.60;1.33;;;7.10;98.20;;;;;;4985416;28;20850;-78
2023/04/30 03:25:36;;;;;;;1.53;1.30;;;7.00;98.20;;;;;;4997587;28;20471;-78
2023/04/30 03:28:02;;;;;;;1.60;1.40;;;7.00;98.20;;;;;;4991334;28;20486;-77
2023/04/30 03:30:29;;;;;;;1.53;1.20;;;7.00;98.20;;;;;;4994140;28;21001;-77
2023/04/30 03:32:56;;;;;;;1.50;1.30;;;7.00;98.20;;;;;;4983852;28;20571;-78
2023/04/30 03:35:23;;;;;;;1.50;1.30;;;7.00;98.20;;;;;;5006711;28;20897;-78
2023/04/30 03:37:50;;;;;;;1.50;1.23;;;6.90;98.20;;;;;;5009469;28;21000;-78
2023/04/30 03:40:17;;;;;;;1.57;1.30;;;6.90;98.20;;;;;;4993752;28;20480;-77
2023/04/30 03:42:45;;;;;;;1.60;1.33;;;6.90;98.20;;;;;;5003943;28;20878;-78
2023/04/30 03:45:11;;;;;;;1.57;1.30;;;6.90;98.20;;;;;;4999448;28;20469;-78
2023/04/30 03:47:38;;;;;;;1.60;1.30;;;6.90;98.20;;;;;;5014104;28;20530;-78
2023/04/30 03:50:06;;;;;;;1.50;1.40;;;6.90;98.20;;;;;;5013926;28;20852;-78
2023/04/30 03:52:33;;;;;;;1.53;1.30;;;6.90;98.20;;;;;;5002590;28;20552;-78
2023/04/30 03:55:00;;;;;;;1.60;1.50;;;6.90;98.20;;;;;;4987524;28;20456;-78
2023/04/30 03:57:27;;;;;;;1.50;1.30;;;6.90;98.20;;;;;;4984547;28;20481;-78
2023/04/30 03:59:55;;;;;;;1.60;1.40;;;6.80;98.20;;;;;;4987282;28;20494;-78
2023/04/30 04:02:22;;;;;;;1.60;1.30;;;6.80;98.20;;;;;;4989443;28;20996;-78
2023/04/30 04:04:50;;;;;;;1.57;1.30;;;6.80;98.20;;;;;;4983640;28;20849;-77
2023/04/30 04:07:17;;;;;;;1.50;1.30;;;6.80;98.20;;;;;;4983595;28;20503;-77
2023/04/30 04:09:44;;;;;;;1.50;1.30;;;6.80;98.20;;;;;;4985214;28;20492;-78
2023/04/30 04:12:11;;;;;;;1.53;1.30;;;6.80;98.20;;;;;;4981792;28;20480;-78
2023/04/30 04:14:38;;;;;;;1.60;1.40;;;6.70;98.20;;;;;;4987960;28;20555;-77
2023/04/30 04:17:06;;;;;;;1.50;1.30;;;6.70;98.20;;;;;;4980610;28;20492;-77
2023/04/30 04:19:32;;;;;;;1.53;1.30;;;6.70;98.20;;;;;;4987596;28;20591;-78
2023/04/30 04:21:59;;;;;;;1.60;1.40;;;6.70;98.20;;;;;;4980883;28;20493;-77
2023/04/30 04:24:26;;;;;;;1.50;1.27;;;6.70;98.20;;;;;;4983732;28;20467;-77
2023/04/30 04:26:53;;;;;;;1.57;1.30;;;6.70;98.20;;;;;;4981189;28;20485;-77
2023/04/30 04:29:20;;;;;;;1.57;1.30;;;6.70;98.20;;;;;;4983502;28;20478;-77
2023/04/30 04:31:48;;;;;;;1.53;1.30;;;6.70;98.20;;;;;;4978207;28;20491;-77
2023/04/30 04:34:16;;;;;;;1.50;1.20;;;6.70;98.20;;;;;;4990678;28;20472;-77
2023/04/30 04:36:43;;;;;;;1.50;1.20;;;6.70;98.20;;;;;;4982938;28;20512;-77
2023/04/30 04:39:10;;;;;;;1.50;1.30;;;6.70;98.20;;;;;;4987213;28;20521;-78
2023/04/30 04:41:37;;;;;;;1.60;1.40;;;6.70;98.20;;;;;;4980031;28;21051;-77
2023/04/30 04:44:04;;;;;;;1.53;1.30;;;6.70;98.20;;;;;;4989455;28;20465;-77
2023/04/30 04:46:31;;;;;;;1.53;1.20;;;6.70;98.20;;;;;;4971537;28;20485;-77
2023/04/30 04:48:58;;;;;;;1.50;1.20;;;6.70;98.20;;;;;;4982760;28;21140;-78
2023/04/30 04:51:27;;;;;;;1.60;1.30;;;6.70;98.20;;;;;;4977820;28;21102;-77
2023/04/30 04:53:53;;;;;;;1.50;1.30;;;6.70;98.20;;;;;;4988295;28;20477;-78
2023/04/30 04:56:20;;;;;;;1.50;1.23;;;6.70;98.20;;;;;;4973155;28;20492;-78
2023/04/30 04:58:47;;;;;;;1.53;1.30;;;6.80;98.20;;;;;;4989669;28;20493;-77
2023/04/30 05:01:14;;;;;;;1.60;1.47;;;6.80;98.20;;;;;;4971602;28;21114;-77
2023/04/30 05:03:41;;;;;;;1.57;1.30;;;6.80;98.20;;;;;;4984226;28;20850;-77
2023/04/30 05:06:07;;;;;;;1.50;1.27;;;6.80;98.20;;;;;;4969727;28;20466;-77
2023/04/30 05:08:37;;;;;;;1.50;1.23;;;6.90;98.20;;;;;;4980440;28;20481;-77
2023/04/30 05:11:03;;;;;;;1.57;1.27;;;6.90;98.20;;;;;;4975891;28;20923;-77
2023/04/30 05:13:30;;;;;;;1.50;1.27;;;7.00;98.20;;;;;;4995511;28;20473;-77
2023/04/30 05:15:57;;;;;;;1.50;1.30;;;7.10;98.20;;;;;;4969764;28;20970;-77
2023/04/30 05:18:24;;;;;;;1.60;1.40;;;7.20;98.20;;;;;;4984034;28;20490;-77
2023/04/30 05:20:51;;;;;;;1.50;1.20;;;7.30;98.20;;;;;;4979728;28;20471;-77
2023/04/30 05:23:17;;;;;;;1.53;1.20;;;7.50;98.20;;;;;;4985941;28;20472;-77
2023/04/30 05:25:46;;;;;;;1.57;1.23;;;7.70;98.20;;;;;;4979717;28;20496;-77
2023/04/30 05:28:12;;;;;;;1.53;1.20;;;7.90;98.20;;;;;;4962632;28;20481;-78
2023/04/30 05:30:39;;;;;;;1.57;1.20;;;8.10;98.20;;;;;;4975144;28;20481;-78
2023/04/30 05:33:06;;;;;;;1.50;1.30;;;8.40;98.20;;;;;;4981125;28;20541;-77
2023/04/30 05:35:34;;;;;;;1.53;1.20;;;8.70;98.20;;;;;;4984521;28;20466;-77
2023/04/30 05:38:01;;;;;;;1.50;1.30;;;9.00;98.20;;;;;;4979115;28;20476;-77
2023/04/30 05:40:28;;;;;;;1.50;1.20;;;9.20;98.20;;;;;;4976777;28;20492;-77
2023/04/30 05:42:56;;;;;;;1.50;1.20;;;9.40;98.20;;;;;;4981858;28;20485;-77
2023/04/30 05:45:23;;;;;;;1.50;1.20;;;9.60;98.20;;;;;;4976537;28;20469;-77
2023/04/30 05:47:50;;;;;;;1.50;1.20;;;9.90;98.20;;;;;;4976821;28;20484;-77
2023/04/30 05:50:17;;;;;;;1.57;1.20;;;10.20;98.20;;;;;;4977607;28;20482;-77
2023/04/30 05:52:44;;;;;;;1.50;1.20;;;10.30;98.20;;;;;;4975812;28;20774;-78
2023/04/30 05:55:11;;;;;;;1.50;1.13;;;10.50;98.20;;;;;;4979380;28;20458;-77
2023/04/30 05:57:37;;;;;;;1.50;1.10;;;10.70;98.20;;;;;;4976456;28;21284;-78
2023/04/30 06:00:07;;;;;;;1.50;1.10;;;11.00;98.20;;;;;;4975797;28;20512;-79
2023/04/30 06:02:34;;;;;;;1.60;1.20;;;11.20;98.20;;;;;;4976980;28;20480;-79
2023/04/30 06:05:02;;;;;;;1.50;1.10;;;11.50;98.20;;;;;;4974826;28;20461;-79
2023/04/30 06:07:29;;;;;;;1.50;1.10;;;11.70;98.20;;;;;;4979396;28;20476;-79
2023/04/30 06:09:56;;;;;;;1.50;1.03;;;11.90;98.20;;;;;;4975846;28;20482;-79
2023/04/30 06:12:23;;;;;;;1.50;1.10;;;12.10;98.20;;;;;;4970444;28;20512;-79
2023/04/30 06:14:50;;;;;;;1.50;1.00;;;12.20;98.20;;;;;;4979021;28;20469;-80
2023/04/30 06:17:18;;;;;;;1.50;1.10;;;12.30;98.20;;;;;;4976879;28;20490;-79
2023/04/30 06:19:44;;;;;;;1.70;1.40;;;12.50;98.20;;;;;;4983867;28;20515;-80
2023/04/30 06:22:12;;;;;;;1.50;1.00;;;12.70;98.20;;;;;;4976614;28;21092;-80
2023/04/30 06:24:39;;;;;;;1.50;1.10;;;12.80;98.20;;;;;;4985858;28;20465;-81
2023/04/30 06:27:06;;;;;;;1.50;1.10;;;13.00;98.20;;;;;;4977124;28;20496;-79
2023/04/30 06:29:32;;;;;;;1.60;1.17;;;13.20;98.20;;;;;;4986689;28;20481;-81
2023/04/30 06:31:59;;;;;;;1.50;1.00;;;13.50;98.20;;;;;;4972308;28;21004;-81
2023/04/30 06:34:27;;;;;;;1.50;1.00;;;13.70;98.20;;;;;;4985118;28;20848;-81
2023/04/30 06:36:55;;;;;;;1.50;1.00;;;13.90;98.20;;;;;;4971599;28;20488;-81
2023/04/30 06:39:22;;;;;;;1.50;1.00;;;14.00;98.20;;;;;;4978100;28;20494;-80
2023/04/30 06:41:48;;;;;;;1.53;1.00;;;14.20;98.20;;;;;;4973319;28;20481;-81
2023/04/30 06:44:15;;;;;;;1.53;1.00;;;14.30;98.20;;;;;;4989062;28;20552;-81
2023/04/30 06:46:42;;;;;;;1.50;1.00;;;14.40;98.20;;;;;;4970441;28;20503;-83
2023/04/30 06:49:09;;;;;;;1.50;1.00;;;14.50;98.20;;;;;;4979333;28;20485;-83
2023/04/30 06:51:37;;;;;;;1.50;1.00;;;14.70;98.20;;;;;;4972802;28;20470;-83
2023/04/30 06:54:05;;;;;;;1.50;1.00;;;14.80;98.20;;;;;;4979367;28;20458;-83
2023/04/30 06:56:31;;;;;;;1.50;1.00;;;14.90;98.20;;;;;;4981246;28;20537;-82
2023/04/30 06:58:58;;;;;;;1.50;1.00;;;15.00;98.20;;;;;;5003519;28;20490;-81
2023/04/30 07:01:25;;;;;;;1.53;1.00;;;15.10;98.20;;;;;;4974365;28;20481;-81
2023/04/30 07:03:53;;;;;;;1.50;0.90;;;15.30;98.20;;;;;;4982968;28;20810;-83
2023/04/30 07:06:20;;;;;;;1.50;1.00;;;15.50;98.20;;;;;;4968168;28;20471;-84
2023/04/30 07:08:48;;;;;;;1.50;1.00;;;15.70;98.00;;;;;;4982812;28;20562;-83
2023/04/30 07:11:15;;;;;;;1.50;1.03;;;15.90;96.50;;;;;;4970117;28;20566;-84
2023/04/30 07:13:42;;;;;;;1.50;1.00;;;16.10;96.40;;;;;;4990051;28;20491;-83
2023/04/30 07:16:09;;;;;;;1.50;1.00;;;16.20;96.00;;;;;;4965207;28;20479;-84
2023/04/30 07:18:38;;;;;;;1.50;1.00;;;16.30;95.50;;;;;;4980658;28;20569;-83
2023/04/30 07:21:07;;;;;;;1.50;0.93;;;16.50;94.80;;;;;;4970055;28;20569;-85
2023/04/30 07:23:34;;;;;;;1.50;0.90;;;16.70;95.30;;;;;;4993109;28;20458;-83
2023/04/30 07:26:02;;;;;;;1.50;1.00;;;16.80;94.30;;;;;;4974917;28;20469;-85
2023/04/30 07:28:29;;;;;;;1.50;0.90;;;16.80;93.70;;;;;;4994175;28;20473;-83
2023/04/30 07:30:56;;;;;;;1.50;1.00;;;16.70;94.20;;;;;;4984306;28;20839;-85
2023/04/30 07:33:23;;;;;;;1.50;0.90;;;16.80;95.10;;;;;;4992842;28;20945;-84
2023/04/30 07:36:17;;;;;;;1.50;0.93;;;17.00;94.00;;;;;;4981106;28;20551;-87
2023/04/30 07:38:44;;;;;;;1.50;0.90;;;17.20;93.80;;;;;;5023698;28;20969;-84
2023/04/30 07:41:16;;;;;;;1.50;1.00;;;17.40;95.40;;;;;;4973247;28;20484;-84
2023/04/30 07:43:48;;;;;;;1.50;0.90;;;17.60;92.00;;;;;;4992513;28;20973;-84
2023/04/30 07:46:14;;;;;;;2.53;2.33;;;17.70;92.50;;;;;;4973409;28;20476;-85
2023/04/30 07:48:41;;;;;;;1.50;0.90;;;17.90;92.50;;;;;;4988690;28;20485;-84
2023/04/30 07:51:08;;;;;;;1.50;0.90;;;18.00;91.00;;;;;;4967471;28;20548;-85
2023/04/30 07:53:35;;;;;;;1.50;0.90;;;18.00;90.90;;;;;;4982853;28;20462;-85
2023/04/30 07:56:02;;;;;;;1.50;0.90;;;18.00;90.70;;;;;;4980428;28;21039;-84
2023/04/30 07:58:30;;;;;;;1.50;0.90;;;18.10;91.50;;;;;;4989296;28;20466;-84
2023/04/30 08:00:57;;;;;;;1.50;0.90;;;18.30;90.80;;;;;;4978899;28;20530;-84
2023/04/30 08:03:30;;;;;;;1.50;0.90;;;18.40;89.60;;;;;;4985582;28;20476;-84
2023/04/30 08:05:57;;;;;;;1.50;0.90;;;18.60;87.90;;;;;;4970686;28;20466;-86
2023/04/30 08:08:24;;;;;;;1.50;1.00;;;18.60;88.30;;;;;;4987584;28;20461;-84
2023/04/30 08:10:50;;;;;;;1.50;0.90;;;18.80;89.40;;;;;;4964221;28;20973;-85
2023/04/30 08:13:21;;;;;;;1.50;0.90;;;18.90;89.20;;;;;;4995074;28;20501;-84
2023/04/30 08:15:49;;;;;;;1.50;0.90;;;18.90;87.80;;;;;;4975172;28;20466;-83
2023/04/30 08:18:18;;;;;;;1.50;0.90;;;18.90;87.40;;;;;;4996453;28;20497;-83
2023/04/30 08:20:45;;;;;;;1.50;0.90;;;18.80;88.50;;;;;;4980967;28;20528;-82
2023/04/30 08:23:12;;;;;;;1.50;0.90;;;18.90;90.00;;;;;;4990535;28;20477;-83
2023/04/30 08:25:39;;;;;;;1.47;0.90;;;19.10;87.90;;;;;;4985246;28;20471;-87
2023/04/30 08:28:06;;;;;;;1.50;0.90;;;19.40;87.20;;;;;;4988573;28;20484;-84
2023/04/30 08:30:33;;;;;;;1.50;0.90;;;19.60;87.00;;;;;;4980722;28;20980;-83
2023/04/30 08:33:01;;;;;;;1.50;0.90;;;19.80;86.20;;;;;;4977432;28;20857;-82
2023/04/30 08:35:29;;;;;;;1.50;0.90;;;20.10;86.90;;;;;;4992481;28;21179;-83
2023/04/30 08:37:58;;;;;;;1.50;0.90;;;20.20;83.60;;;;;;4979322;28;20513;-84
2023/04/30 08:40:26;;;;;;;1.50;0.90;;;20.10;83.10;;;;;;4996603;28;20525;-83
2023/04/30 08:43:18;;;;;;;1.50;0.90;;;20.10;83.00;;;;;;5016289;28;20479;-85
2023/04/30 08:45:54;;;;;;;1.50;0.90;;;19.90;83.30;;;;;;4952745;28;20472;-84
2023/04/30 08:48:25;;;;;;;1.50;0.90;;;20.00;84.80;;;;;;4963787;28;20522;-84
2023/04/30 08:50:52;;;;;;;1.50;0.90;;;20.00;83.10;;;;;;4968503;28;20450;-83
2023/04/30 08:53:20;;;;;;;1.50;0.90;;;20.20;81.80;;;;;;4995712;28;20462;-85
2023/04/30 08:55:49;;;;;;;1.50;0.90;;;20.40;80.40;;;;;;4983378;28;20556;-84
2023/04/30 08:58:16;;;;;;;1.50;0.90;;;20.30;80.20;;;;;;4973870;28;20486;-85
2023/04/30 09:00:45;;;;;;;1.50;0.90;;;20.40;82.80;;;;;;4985287;28;20512;-84
2023/04/30 09:03:12;;;;;;;1.50;0.90;;;20.40;81.20;;;;;;4973129;28;20486;-84
2023/04/30 09:05:45;;;;;;;1.50;0.90;;;20.50;81.30;;;;;;4989002;28;20462;-84
2023/04/30 09:08:19;;;;;;;1.50;0.90;;;20.60;82.00;;;;;;4972110;28;20469;-84
2023/04/30 09:10:46;;;;;;;1.50;0.90;;;20.70;81.20;;;;;;5007581;28;20453;-85
2023/04/30 09:13:13;;;;;;;1.50;0.90;;;20.90;79.70;;;;;;4979509;28;21050;-83
2023/04/30 09:15:45;;;;;;;1.43;0.90;;;20.80;79.60;;;;;;5001716;28;20511;-85
2023/04/30 09:18:16;;;;;;;1.50;0.90;;;20.90;79.90;;;;;;4965307;28;20481;-84
2023/04/30 09:20:57;;;;;;;1.50;0.90;;;21.10;80.80;;;;;;4972030;28;20684;-83
2023/04/30 09:23:25;;;;;;;1.50;0.90;;;21.30;80.80;;;;;;4964498;28;20497;-84
2023/04/30 09:25:52;;;;;;;1.50;0.90;;;21.10;78.00;;;;;;4975859;28;20466;-83
2023/04/30 09:28:22;;;;;;;1.50;0.90;;;21.20;80.80;;;;;;4994612;28;20474;-82
2023/04/30 09:31:00;;;;;;;1.43;0.90;;;21.30;80.60;;;;;;4982756;28;20473;-83
2023/04/30 09:33:29;;;;;;;1.47;0.90;;;21.50;80.20;;;;;;4997412;28;20492;-83
2023/04/30 09:35:57;;;;;;;1.50;0.90;;;21.80;80.10;;;;;;4980572;28;20553;-86
2023/04/30 09:38:32;;;;;;;1.50;1.00;;;22.00;78.00;;;;;;4996591;28;20544;-84
2023/04/30 09:41:03;;;;;;;1.50;0.90;;;22.10;76.60;;;;;;4987942;28;20484;-84
2023/04/30 09:43:30;;;;;;;1.47;0.83;;;22.20;77.40;;;;;;4990621;28;20564;-83
2023/04/30 09:45:59;;;;;;;1.50;0.80;;;22.30;75.30;;;;;;4983923;28;20493;-83
2023/04/30 09:48:27;;;;;;;1.50;1.10;;;22.40;77.10;;;;;;4988509;28;20466;-84
2023/04/30 09:50:54;;;;;;;1.50;0.87;;;22.60;77.50;;;;;;4972358;28;20483;-86
2023/04/30 09:53:23;;;;;;;1.40;0.90;;;22.80;77.00;;;;;;4978717;28;20462;-86
2023/04/30 09:55:51;;;;;;;1.43;0.80;;;22.90;75.50;;;;;;4964957;28;20473;-81
2023/04/30 09:58:22;;;;;;;1.40;0.90;;;22.90;76.30;;;;;;4994081;28;20462;-83
2023/04/30 10:00:54;;;;;;;1.50;0.83;;;23.10;76.00;;;;;;4977854;28;20485;-85
2023/04/30 10:03:25;;;;;;;1.43;0.83;;;23.10;74.10;;;;;;4979759;28;20497;-83
2023/04/30 10:06:06;;;;;;;1.50;0.87;;;23.10;74.60;;;;;;4982450;28;20992;-84
2023/04/30 10:08:44;;;;;;;1.50;0.90;;;23.40;74.40;;;;;;4994208;28;20560;-82
2023/04/30 10:11:48;;;;;;;1.43;0.83;;;23.70;74.60;;;;;;4981104;28;20515;-82
2023/04/30 10:14:25;;;;;;;1.47;0.90;;;23.90;74.90;;;;;;4970939;28;20515;-83
2023/04/30 10:20:17;;;;;;;1.50;0.87;;;24.10;74.50;;;;;;5364690;22;20582;-83
2023/04/30 10:22:46;;;;;;;1.50;0.87;;;24.50;72.50;;;;;;5011522;28;20475;-84
2023/04/30 10:25:15;;;;;;;1.47;0.80;;;24.70;70.80;;;;;;5018022;28;20494;-84
2023/04/30 10:27:42;;;;;;;1.50;0.80;;;24.40;68.50;;;;;;5007663;28;20810;-81
2023/04/30 10:30:11;;;;;;;1.50;0.80;;;24.30;73.40;;;;;;5021877;28;20532;-81
2023/04/30 10:32:56;;;;;;;1.50;0.90;;;24.40;72.20;;;;;;5008500;28;20880;-82
2023/04/30 10:35:39;;;;;;;1.50;0.90;;;24.40;70.30;;;;;;5023885;28;20491;-83
2023/04/30 10:38:15;;;;;;;1.50;0.90;;;24.40;73.10;;;;;;5006914;27;20561;-85
2023/04/30 10:40:47;;;;;;;1.50;0.90;;;24.60;71.40;;;;;;5023338;28;20501;-84
2023/04/30 10:43:17;;;;;;;1.40;0.80;;;24.80;70.40;;;;;;4995721;28;20478;-83
2023/04/30 10:45:49;;;;;;;1.50;0.83;;;25.00;70.70;;;;;;5026357;28;20451;-83
2023/04/30 10:48:23;;;;;;;1.50;0.90;;;25.20;69.30;;;;;;4995877;28;20483;-83
2023/04/30 10:50:51;;;;;;;1.50;0.90;;;25.40;70.20;;;;;;5014057;28;20490;-84
2023/04/30 10:53:28;;;;;;;1.47;0.80;;;25.70;68.90;;;;;;5030350;27;20882;-82
2023/04/30 10:55:59;;;;;;;1.50;0.80;;;25.70;68.20;;;;;;5014309;28;20455;-83
2023/04/30 10:58:27;;;;;;;1.50;1.00;;;25.80;68.60;;;;;;5014095;27;20474;-82
2023/04/30 11:01:07;;;;;;;1.50;0.90;;;26.00;66.70;;;;;;5013918;28;20462;-82
2023/04/30 11:03:36;;;;;;;1.50;0.90;;;26.10;68.20;;;;;;5023397;28;20523;-82
2023/04/30 11:06:10;;;;;;;1.50;0.80;;;25.70;65.80;;;;;;5013608;28;20828;-82
2023/04/30 11:08:44;;;;;;;1.50;0.90;;;25.10;66.50;;;;;;5024118;27;20571;-84
2023/04/30 11:11:25;;;;;;;1.50;0.90;;;24.50;68.00;;;;;;5009330;28;20480;-83
2023/04/30 11:14:00;;;;;;;1.50;0.90;;;24.00;69.50;;;;;;5004010;28;20470;-82
2023/04/30 11:16:30;;;;;;;1.47;0.80;;;23.80;69.40;;;;;;5014233;28;20470;-85
2023/04/30 11:19:06;;;;;;;1.50;0.80;;;23.90;71.30;;;;;;5022564;28;20471;-81
2023/04/30 11:21:33;;;;;;;1.50;0.87;;;24.20;70.20;;;;;;5041233;28;20520;-84
2023/04/30 11:24:03;;;;;;;1.50;0.80;;;24.50;68.00;;;;;;5071004;28;20498;-82
2023/04/30 11:27:04;;;;;;;1.50;0.90;;;24.70;67.80;;;;;;5010918;28;20980;-82
2023/04/30 11:29:32;;;;;;;1.40;0.90;;;24.70;69.40;;;;;;5018715;28;20896;-83
2023/04/30 11:32:00;;;;;;;1.40;0.80;;;24.40;67.70;;;;;;5012646;28;20487;-81
2023/04/30 11:34:27;;;;;;;1.47;0.90;;;24.40;68.70;;;;;;5024176;28;20904;-83
2023/04/30 11:36:58;;;;;;;1.50;0.90;;;24.40;69.10;;;;;;5013829;28;20850;-83
2023/04/30 11:39:27;;;;;;;1.50;0.90;;;24.70;70.10;;;;;;5025674;28;20489;-82
2023/04/30 11:41:56;;;;;;;1.47;0.90;;;24.80;67.70;;;;;;5022855;28;21030;-84
2023/04/30 11:44:25;;;;;;;1.40;0.90;;;24.50;66.50;;;;;;5030289;28;20939;-82
2023/04/30 11:46:55;;;;;;;1.50;0.90;;;24.10;67.40;;;;;;5024385;27;21072;-82
2023/04/30 11:49:22;;;;;;;1.40;0.80;;;23.80;68.20;;;;;;5043140;27;20555;-84
2023/04/30 11:51:49;;;;;;;1.50;0.90;;;23.30;66.90;;;;;;5013273;28;20483;-84
2023/04/30 11:54:31;;;;;;;1.73;1.20;;;23.00;69.10;;;;;;5031854;28;20564;-84
2023/04/30 11:57:07;;;;;;;1.47;0.87;;;22.80;69.70;;;;;;5015213;28;20479;-84
2023/04/30 11:59:42;;;;;;;1.50;0.90;;;22.80;69.70;;;;;;5025952;28;20886;-84
2023/04/30 12:02:42;;;;;;;1.63;1.53;;;22.80;69.10;;;;;;5017171;28;20594;-83
2023/04/30 12:05:29;;;;;;;1.50;0.90;;;22.90;70.40;;;;;;4946784;28;20838;-85
2023/04/30 12:08:03;;;;;;;1.47;0.80;;;23.40;71.50;;;;;;5016994;28;20516;-84
2023/04/30 12:10:32;;;;;;;1.50;0.83;;;23.70;69.10;;;;;;5026090;28;20530;-85
2023/04/30 12:13:17;;;;;;;1.47;0.90;;;23.70;68.60;;;;;;5011096;28;20605;-83
2023/04/30 12:15:58;;;;;;;1.50;0.90;;;23.80;70.40;;;;;;5023554;28;20463;-84
2023/04/30 12:18:30;;;;;;;1.40;0.80;;;24.10;70.50;;;;;;4997920;28;20994;-83
2023/04/30 12:21:00;;;;;;;1.50;0.90;;;24.30;69.30;;;;;;5011398;28;20633;-90
2023/04/30 12:23:27;;;;;;;1.47;0.83;;;24.60;68.50;;;;;;5019290;28;20568;-85
2023/04/30 12:26:11;;;;;;;1.43;0.87;;;24.60;68.60;;;;;;5010206;28;20463;-86
2023/04/30 12:28:39;;;;;;;1.40;0.80;;;24.80;69.90;;;;;;4999795;28;20490;-82
2023/04/30 12:31:08;;;;;;;1.43;0.83;;;24.80;66.90;;;;;;5010426;28;20490;-83
2023/04/30 12:34:22;;;;;;;1.50;0.80;;;24.20;65.70;;;;;;5022413;28;20574;-83
2023/04/30 12:36:51;;;;;;;1.50;0.90;;;23.70;66.60;;;;;;5011136;28;20506;-84
2023/04/30 12:39:17;;;;;;;1.40;0.83;;;23.90;69.30;;;;;;5023351;28;20704;-85
2023/04/30 12:41:47;;;;;;;1.43;0.80;;;24.10;69.40;;;;;;5014602;28;20531;-84
2023/04/30 12:44:19;;;;;;;1.40;0.90;;;23.90;66.40;;;;;;5021274;28;20539;-83
2023/04/30 12:46:46;;;;;;;1.50;0.90;;;23.50;69.10;;;;;;5015561;27;20775;-86
2023/04/30 12:49:23;;;;;;;1.60;1.30;;;23.30;69.60;;;;;;5026909;27;20686;-83
2023/04/30 12:55:46;;;;;;;1.40;0.83;;;23.20;69.60;;;;;;5025032;28;20599;-83
2023/04/30 12:58:15;;;;;;;1.50;1.00;;;23.00;70.10;;;;;;4990396;28;20928;-84
2023/04/30 13:00:48;;;;;;;1.50;0.90;;;23.00;68.40;;;;;;5021312;28;20464;-83
2023/04/30 13:03:16;;;;;;;1.47;0.80;;;23.20;69.50;;;;;;4997734;28;20482;-83
2023/04/30 13:05:47;;;;;;;1.50;0.90;;;23.20;68.90;;;;;;5027146;28;20475;-84
2023/04/30 13:08:21;;;;;;;1.43;0.80;;;23.30;71.50;;;;;;4999464;28;20543;-83
2023/04/30 13:11:19;;;;;;;1.47;0.90;;;23.30;69.80;;;;;;5020238;28;20578;-84